createdAt,value
2019-03-01T00:02:11.259Z,93.40
2019-03-01T00:05:02.612Z,93.60
2019-03-01T00:08:10.106Z,93.90
2019-03-01T00:11:16.868Z,93.40
2019-03-01T00:14:39.503Z,93.60
2019-03-01T00:18:01.830Z,93.20
2019-03-01T00:21:28.073Z,93.00
2019-03-01T00:24:33.036Z,92.60
2019-03-01T00:27:39.255Z,92.20
2019-03-01T00:30:47.613Z,92.20
2019-03-01T00:33:27.837Z,92.20
2019-03-01T00:36:43.149Z,92.20
2019-03-01T00:39:40.639Z,92.20
2019-03-01T00:42:54.235Z,92.10
2019-03-01T00:45:27.151Z,91.90
2019-03-01T00:47:57.546Z,91.70
2019-03-01T00:50:28.017Z,91.50
2019-03-01T00:52:57.851Z,91.40
2019-03-01T00:55:28.206Z,91.50
2019-03-01T00:57:58.308Z,91.50
2019-03-01T01:00:41.096Z,91.40
2019-03-01T01:03:11.401Z,91.20
2019-03-01T01:05:44.159Z,91.00
2019-03-01T01:08:14.353Z,90.90
2019-03-01T01:10:47.349Z,90.90
2019-03-01T01:13:17.459Z,90.50
2019-03-01T01:15:47.592Z,90.70
2019-03-01T01:18:17.763Z,90.80
2019-03-01T01:20:47.793Z,90.70
2019-03-01T01:23:17.975Z,90.50
2019-03-01T01:25:47.724Z,90.70
2019-03-01T01:28:17.435Z,90.80
2019-03-01T01:30:47.112Z,90.90
2019-03-01T01:33:16.841Z,90.70
2019-03-01T01:35:46.837Z,90.50
2019-03-01T01:38:16.953Z,90.70
2019-03-01T01:40:46.598Z,90.80
2019-03-01T01:43:16.606Z,90.70
2019-03-01T01:45:46.533Z,91.10
2019-03-01T01:48:16.463Z,91.30
2019-03-01T01:50:46.500Z,91.10
2019-03-01T01:53:16.492Z,91.10
2019-03-01T01:55:46.121Z,91.30
2019-03-01T01:58:16.179Z,91.00
2019-03-01T02:00:46.089Z,91.00
2019-03-01T02:03:16.220Z,90.90
2019-03-01T02:05:46.682Z,91.00
2019-03-01T02:08:16.380Z,90.80
2019-03-01T02:10:46.120Z,90.70
2019-03-01T02:13:15.821Z,90.60
2019-03-01T02:15:45.763Z,90.60
2019-03-01T02:18:15.909Z,90.60
2019-03-01T02:20:45.563Z,90.80
2019-03-01T02:23:15.218Z,90.80
2019-03-01T02:25:44.901Z,90.80
2019-03-01T02:28:14.533Z,91.00
2019-03-01T02:30:44.537Z,90.70
2019-03-01T02:33:14.667Z,90.60
2019-03-01T02:35:44.610Z,90.20
2019-03-01T02:38:14.254Z,90.20
2019-03-01T02:40:43.945Z,90.30
2019-03-01T02:43:13.611Z,90.40
2019-03-01T02:45:43.675Z,90.40
2019-03-01T02:48:14.050Z,90.30
2019-03-01T02:50:45.616Z,90.00
2019-03-01T02:53:15.629Z,90.00
2019-03-01T02:55:45.312Z,90.00
2019-03-01T02:58:14.961Z,90.00
2019-03-01T03:00:44.654Z,89.90
2019-03-01T03:03:14.333Z,89.60
2019-03-01T03:06:02.912Z,89.10
2019-03-01T03:08:32.792Z,89.60
2019-03-01T03:11:02.610Z,89.80
2019-03-01T03:13:32.583Z,89.70
2019-03-01T03:16:02.749Z,90.00
2019-03-01T03:18:32.407Z,90.00
2019-03-01T03:21:02.434Z,88.90
2019-03-01T03:23:32.098Z,89.30
2019-03-01T03:26:01.765Z,89.70
2019-03-01T03:28:31.852Z,90.00
2019-03-01T03:31:01.533Z,90.00
2019-03-01T03:33:31.210Z,90.00
2019-03-01T03:36:01.312Z,90.00
2019-03-01T03:38:31.193Z,89.80
2019-03-01T03:41:00.973Z,89.80
2019-03-01T03:43:30.669Z,89.50
2019-03-01T03:46:00.367Z,89.80
2019-03-01T03:48:30.066Z,90.00
2019-03-01T03:50:59.793Z,90.00
2019-03-01T03:53:29.539Z,89.60
2019-03-01T03:55:59.231Z,89.70
2019-03-01T03:58:28.971Z,89.80
2019-03-01T04:00:58.941Z,89.90
2019-03-01T04:03:28.739Z,90.00
2019-03-01T04:05:58.891Z,90.00
2019-03-01T04:08:29.306Z,90.00
2019-03-01T04:10:59.042Z,90.10
2019-03-01T04:13:29.323Z,90.30
2019-03-01T04:15:59.750Z,90.50
2019-03-01T04:18:29.849Z,90.40
2019-03-01T04:20:59.974Z,90.40
2019-03-01T04:23:30.003Z,90.70
2019-03-01T04:25:59.701Z,90.60
2019-03-01T04:28:29.679Z,90.60
2019-03-01T04:31:02.409Z,90.80
2019-03-01T04:33:32.143Z,90.90
2019-03-01T04:36:02.099Z,90.70
2019-03-01T04:38:32.135Z,90.70
2019-03-01T04:41:02.128Z,90.60
2019-03-01T04:43:31.839Z,90.60
2019-03-01T04:46:01.597Z,90.70
2019-03-01T04:48:31.820Z,90.80
2019-03-01T04:51:01.763Z,90.80
2019-03-01T04:53:31.954Z,90.80
2019-03-01T04:56:01.658Z,90.70
2019-03-01T04:58:31.687Z,90.70
2019-03-01T05:01:01.883Z,90.70
2019-03-01T05:03:31.559Z,90.70
2019-03-01T05:06:01.664Z,90.70
2019-03-01T05:08:31.763Z,91.10
2019-03-01T05:11:01.937Z,90.80
2019-03-01T05:13:32.008Z,91.00
2019-03-01T05:16:01.890Z,90.90
2019-03-01T05:18:31.723Z,91.10
2019-03-01T05:21:01.722Z,91.10
2019-03-01T05:23:31.851Z,91.20
2019-03-01T05:26:01.513Z,91.20
2019-03-01T05:28:31.152Z,91.10
2019-03-01T05:31:01.142Z,91.10
2019-03-01T05:33:31.649Z,91.30
2019-03-01T05:36:01.923Z,91.10
2019-03-01T05:38:31.834Z,91.20
2019-03-01T05:41:01.461Z,91.40
2019-03-01T05:43:31.110Z,91.40
2019-03-01T05:46:01.300Z,91.40
2019-03-01T05:48:31.647Z,91.30
2019-03-01T05:51:01.926Z,91.20
2019-03-01T05:53:32.122Z,91.10
2019-03-01T05:56:02.350Z,91.10
2019-03-01T05:58:34.382Z,91.10
2019-03-01T06:01:27.040Z,91.00
2019-03-01T06:04:02.870Z,91.00
2019-03-01T06:06:53.757Z,91.10
2019-03-01T06:10:00.456Z,90.90
2019-03-01T06:13:04.624Z,90.90
2019-03-01T06:15:51.366Z,90.80
2019-03-01T06:19:14.260Z,90.90
2019-03-01T06:22:46.261Z,90.90
2019-03-01T06:25:44.415Z,90.70
2019-03-01T06:28:48.450Z,90.90
2019-03-01T06:32:10.541Z,91.00
2019-03-01T06:35:14.437Z,90.30
2019-03-01T06:38:35.428Z,90.30
2019-03-01T06:41:34.030Z,90.40
2019-03-01T06:44:29.341Z,90.70
2019-03-01T06:47:30.994Z,90.70
2019-03-01T06:50:07.589Z,90.50
2019-03-01T06:52:37.699Z,90.40
2019-03-01T06:55:10.895Z,90.50
2019-03-01T06:57:40.869Z,90.50
2019-03-01T07:00:11.051Z,90.40
2019-03-01T07:02:46.555Z,90.30
2019-03-01T07:05:16.564Z,90.20
2019-03-01T07:07:46.655Z,90.20
2019-03-01T07:10:16.685Z,89.70
2019-03-01T07:12:46.726Z,88.40
2019-03-01T07:15:16.940Z,87.50
2019-03-01T07:17:47.003Z,86.90
2019-03-01T07:20:17.205Z,87.00
2019-03-01T07:22:46.875Z,87.20
2019-03-01T07:25:16.917Z,86.90
2019-03-01T07:27:46.929Z,87.30
2019-03-01T07:30:17.077Z,87.60
2019-03-01T07:32:47.177Z,87.10
2019-03-01T07:35:17.200Z,85.20
2019-03-01T07:37:47.182Z,84.50
2019-03-01T07:40:17.257Z,82.80
2019-03-01T07:42:47.537Z,82.90
2019-03-01T07:45:17.596Z,82.60
2019-03-01T07:47:47.893Z,82.90
2019-03-01T07:50:17.933Z,82.60
2019-03-01T07:52:47.807Z,81.30
2019-03-01T07:55:18.062Z,79.40
2019-03-01T07:57:49.723Z,78.40
2019-03-01T08:00:19.928Z,78.40
2019-03-01T08:02:49.955Z,76.70
2019-03-01T08:05:19.947Z,74.80
2019-03-01T08:07:56.023Z,74.20
2019-03-01T08:10:23.005Z,74.40
2019-03-01T08:12:53.499Z,75.00
2019-03-01T08:15:23.795Z,75.70
2019-03-01T08:17:53.863Z,75.90
2019-03-01T08:20:23.877Z,76.40
2019-03-01T08:22:56.810Z,75.60
2019-03-01T08:25:25.720Z,74.90
2019-03-01T08:27:55.790Z,74.40
2019-03-01T08:30:25.757Z,73.10
2019-03-01T08:32:55.884Z,71.90
2019-03-01T08:35:28.336Z,71.30
2019-03-01T08:37:57.601Z,69.90
2019-03-01T08:40:27.691Z,67.50
2019-03-01T08:42:58.502Z,68.00
2019-03-01T08:45:29.747Z,68.00
2019-03-01T08:48:00.326Z,66.70
2019-03-01T08:50:30.404Z,66.60
2019-03-01T08:53:01.280Z,66.60
2019-03-01T08:55:31.579Z,65.90
2019-03-01T08:58:04.656Z,66.00
2019-03-01T09:00:34.328Z,66.80
2019-03-01T09:03:11.787Z,67.30
2019-03-01T09:05:41.691Z,66.60
2019-03-01T09:08:11.739Z,67.00
2019-03-01T09:10:42.042Z,67.60
2019-03-01T09:13:12.108Z,68.10
2019-03-01T09:15:42.157Z,67.00
2019-03-01T09:18:14.610Z,67.50
2019-03-01T09:20:43.940Z,67.20
2019-03-01T09:23:24.342Z,66.70
2019-03-01T09:25:49.861Z,65.90
2019-03-01T09:28:20.144Z,65.70
2019-03-01T09:30:52.405Z,64.80
2019-03-01T09:33:22.980Z,63.80
2019-03-01T09:36:21.417Z,63.10
2019-03-01T09:38:51.666Z,64.60
2019-03-01T09:41:21.853Z,64.40
2019-03-01T09:43:51.946Z,64.40
2019-03-01T09:46:24.747Z,63.80
2019-03-01T09:48:53.353Z,63.40
2019-03-01T09:51:23.428Z,64.90
2019-03-01T09:53:53.687Z,63.70
2019-03-01T09:56:24.452Z,62.90
2019-03-01T09:58:54.775Z,62.50
2019-03-01T10:01:24.867Z,61.70
2019-03-01T10:03:56.318Z,60.30
2019-03-01T10:06:26.432Z,58.70
2019-03-01T10:08:56.578Z,57.90
2019-03-01T10:11:26.771Z,59.30
2019-03-01T10:13:56.884Z,58.90
2019-03-01T10:16:26.920Z,59.10
2019-03-01T10:18:57.533Z,59.40
2019-03-01T10:21:27.872Z,59.80
2019-03-01T10:23:58.153Z,60.30
2019-03-01T10:26:28.892Z,60.80
2019-03-01T10:28:59.216Z,60.20
2019-03-01T10:31:29.301Z,60.50
2019-03-01T10:34:04.209Z,60.10
2019-03-01T10:36:34.487Z,60.20
2019-03-01T10:39:07.963Z,60.50
2019-03-01T10:41:44.742Z,60.20
2019-03-01T10:44:17.981Z,61.20
2019-03-01T10:46:48.073Z,61.90
2019-03-01T10:49:18.375Z,62.00
2019-03-01T10:51:48.418Z,62.40
2019-03-01T10:54:18.666Z,62.30
2019-03-01T10:56:49.010Z,61.90
2019-03-01T10:59:19.142Z,62.20
2019-03-01T11:01:49.309Z,62.50
2019-03-01T11:04:19.297Z,62.50
2019-03-01T11:06:49.526Z,62.20
2019-03-01T11:09:19.708Z,61.30
2019-03-01T11:11:49.802Z,61.80
2019-03-01T11:14:19.850Z,60.30
2019-03-01T11:16:49.991Z,60.70
2019-03-01T11:19:20.082Z,63.00
2019-03-01T11:21:50.428Z,63.90
2019-03-01T11:24:20.657Z,64.20
2019-03-01T11:26:50.766Z,63.20
2019-03-01T11:29:20.765Z,64.20
2019-03-01T11:31:50.946Z,65.40
2019-03-01T11:34:21.221Z,65.30
2019-03-01T11:36:51.363Z,65.50
2019-03-01T11:39:24.263Z,66.20
2019-03-01T11:41:54.340Z,65.40
2019-03-01T11:44:24.456Z,65.60
2019-03-01T11:46:54.423Z,64.20
2019-03-01T11:49:24.590Z,63.20
2019-03-01T11:51:54.828Z,62.50
2019-03-01T11:54:24.687Z,59.80
2019-03-01T11:56:54.855Z,55.50
2019-03-01T11:59:25.154Z,51.00
2019-03-01T12:01:55.199Z,48.10
2019-03-01T12:04:25.210Z,46.80
2019-03-01T12:06:55.177Z,43.80
2019-03-01T12:09:25.253Z,42.20
2019-03-01T12:11:55.329Z,41.20
2019-03-01T12:14:25.284Z,40.70
2019-03-01T12:16:55.624Z,41.60
2019-03-01T12:19:25.728Z,42.90
2019-03-01T12:21:55.811Z,45.70
2019-03-01T12:24:25.944Z,48.10
2019-03-01T12:26:55.988Z,51.50
2019-03-01T12:29:26.007Z,52.50
2019-03-01T12:31:56.065Z,53.60
2019-03-01T12:34:26.327Z,52.70
2019-03-01T12:36:56.306Z,53.50
2019-03-01T12:39:26.314Z,54.80
2019-03-01T12:41:56.475Z,56.40
2019-03-01T12:44:26.539Z,53.60
2019-03-01T12:46:56.720Z,51.20
2019-03-01T12:49:26.774Z,48.60
2019-03-01T12:51:56.890Z,46.10
2019-03-01T12:54:27.031Z,45.70
2019-03-01T12:56:57.222Z,44.60
2019-03-01T12:59:27.273Z,44.70
2019-03-01T13:01:57.398Z,44.80
2019-03-01T13:04:27.602Z,44.30
2019-03-01T13:06:57.654Z,45.20
2019-03-01T13:09:27.827Z,44.80
2019-03-01T13:11:58.184Z,45.00
2019-03-01T13:14:28.280Z,44.90
2019-03-01T13:16:58.555Z,46.90
2019-03-01T13:19:30.144Z,49.30
2019-03-01T13:22:00.162Z,51.90
2019-03-01T13:24:30.481Z,54.50
2019-03-01T13:27:00.638Z,57.10
2019-03-01T13:29:31.003Z,58.60
2019-03-01T13:32:00.986Z,60.20
2019-03-01T13:34:31.044Z,61.00
2019-03-01T13:37:01.084Z,62.50
2019-03-01T13:39:31.305Z,63.60
2019-03-01T13:42:01.552Z,64.00
2019-03-01T13:44:31.663Z,64.30
2019-03-01T13:47:01.845Z,65.00
2019-03-01T13:49:32.256Z,65.40
2019-03-01T13:52:02.355Z,65.80
2019-03-01T13:54:32.674Z,66.10
2019-03-01T13:57:02.751Z,66.10
2019-03-01T13:59:32.497Z,66.40
2019-03-01T14:02:04.395Z,66.30
2019-03-01T14:04:36.600Z,67.20
2019-03-01T14:07:05.990Z,67.70
2019-03-01T14:09:36.346Z,68.00
2019-03-01T14:12:06.626Z,68.40
2019-03-01T14:14:37.317Z,68.50
2019-03-01T14:17:07.302Z,69.00
2019-03-01T14:19:39.065Z,69.30
2019-03-01T14:22:13.155Z,69.40
2019-03-01T14:24:41.006Z,69.70
2019-03-01T14:27:11.494Z,70.10
2019-03-01T14:29:41.560Z,70.20
2019-03-01T14:32:15.371Z,70.60
2019-03-01T14:34:47.740Z,71.30
2019-03-01T14:37:18.494Z,71.50
2019-03-01T14:39:47.377Z,71.40
2019-03-01T14:42:17.407Z,71.20
2019-03-01T14:44:47.730Z,72.20
2019-03-01T14:47:17.782Z,72.30
2019-03-01T14:49:47.942Z,72.60
2019-03-01T14:52:18.260Z,73.00
2019-03-01T14:54:48.388Z,73.30
2019-03-01T14:57:28.981Z,73.70
2019-03-01T15:00:14.044Z,74.30
2019-03-01T15:03:05.693Z,74.70
2019-03-01T15:05:38.618Z,74.90
2019-03-01T15:08:07.823Z,75.10
2019-03-01T15:10:37.988Z,75.40
2019-03-01T15:13:08.039Z,75.90
2019-03-01T15:15:38.194Z,76.40
2019-03-01T15:18:08.591Z,76.10
2019-03-01T15:20:38.626Z,76.60
2019-03-01T15:23:08.787Z,77.10
2019-03-01T15:25:38.876Z,77.50
2019-03-01T15:28:08.951Z,77.60
2019-03-01T15:30:39.030Z,78.00
2019-03-01T15:33:11.716Z,78.40
2019-03-01T15:35:41.207Z,78.60
2019-03-01T15:38:11.303Z,78.70
2019-03-01T15:40:41.329Z,78.90
2019-03-01T15:43:11.464Z,79.20
2019-03-01T15:45:41.467Z,79.90
2019-03-01T15:48:11.501Z,79.80
2019-03-01T15:50:41.643Z,80.60
2019-03-01T15:53:11.743Z,80.80
2019-03-01T15:55:41.417Z,80.90
2019-03-01T15:58:11.481Z,81.20
2019-03-01T16:00:41.723Z,81.30
2019-03-01T16:03:12.028Z,81.80
2019-03-01T16:05:42.025Z,81.70
2019-03-01T16:08:12.132Z,82.10
2019-03-01T16:10:42.172Z,82.30
2019-03-01T16:13:13.262Z,82.60
2019-03-01T16:15:43.528Z,82.60
2019-03-01T16:18:13.121Z,82.20
2019-03-01T16:20:42.780Z,83.20
2019-03-01T16:23:12.420Z,83.40
2019-03-01T16:25:42.090Z,83.60
2019-03-01T16:28:12.077Z,84.20
2019-03-01T16:30:41.784Z,84.20
2019-03-01T16:33:11.446Z,84.50
2019-03-01T16:35:41.178Z,84.80
2019-03-01T16:38:11.165Z,85.10
2019-03-01T16:40:41.229Z,85.30
2019-03-01T16:43:10.843Z,85.70
2019-03-01T16:45:40.475Z,85.60
2019-03-01T16:48:10.121Z,85.80
2019-03-01T16:50:40.646Z,86.30
2019-03-01T16:53:11.070Z,86.60
2019-03-01T16:55:40.707Z,86.60
2019-03-01T16:58:10.675Z,86.50
2019-03-01T17:00:40.317Z,86.80
2019-03-01T17:03:09.982Z,87.20
2019-03-01T17:05:39.742Z,87.30
2019-03-01T17:08:09.446Z,87.20
2019-03-01T17:10:39.072Z,87.30
2019-03-01T17:13:09.130Z,87.50
2019-03-01T17:15:39.146Z,87.80
2019-03-01T17:18:12.212Z,87.70
2019-03-01T17:20:40.397Z,88.00
2019-03-01T17:23:11.426Z,88.00
2019-03-01T17:25:41.172Z,88.10
2019-03-01T17:28:11.162Z,88.30
2019-03-01T17:30:40.786Z,88.50
2019-03-01T17:33:12.764Z,88.40
2019-03-01T17:35:42.127Z,88.40
2019-03-01T17:38:11.790Z,88.30
2019-03-01T17:40:41.461Z,88.40
2019-03-01T17:43:11.149Z,89.00
2019-03-01T17:45:41.267Z,89.10
2019-03-01T17:48:11.439Z,88.80
2019-03-01T17:50:41.743Z,88.90
2019-03-01T17:53:12.777Z,89.30
2019-03-01T17:55:42.423Z,89.60
2019-03-01T17:58:12.137Z,89.60
2019-03-01T18:00:42.047Z,89.20
2019-03-01T18:03:12.211Z,89.00
2019-03-01T18:05:41.842Z,89.10
2019-03-01T18:08:13.893Z,89.20
2019-03-01T18:10:43.229Z,89.20
2019-03-01T18:13:14.929Z,89.50
2019-03-01T18:15:45.070Z,90.10
2019-03-01T18:18:16.022Z,89.70
2019-03-01T18:20:45.658Z,89.90
2019-03-01T18:23:15.549Z,90.00
2019-03-01T18:25:45.713Z,90.10
2019-03-01T18:28:15.370Z,90.20
2019-03-01T18:30:45.487Z,90.20
2019-03-01T18:33:16.923Z,90.30
2019-03-01T18:35:48.270Z,90.30
2019-03-01T18:38:18.123Z,90.40
2019-03-01T18:40:48.513Z,90.00
2019-03-01T18:43:19.473Z,90.00
2019-03-01T18:45:49.110Z,90.00
2019-03-01T18:48:18.780Z,90.00
2019-03-01T18:50:48.783Z,90.00
2019-03-01T18:53:18.435Z,90.00
2019-03-01T18:55:49.686Z,90.20
2019-03-01T18:58:19.368Z,90.00
2019-03-01T19:00:49.155Z,90.00
2019-03-01T19:03:18.774Z,90.00
2019-03-01T19:05:48.718Z,90.00
2019-03-01T19:08:18.358Z,90.10
2019-03-01T19:10:54.248Z,90.30
2019-03-01T19:13:20.799Z,90.40
2019-03-01T19:15:54.405Z,90.30
2019-03-01T19:18:22.485Z,90.40
2019-03-01T19:20:52.411Z,90.50
2019-03-01T19:23:22.048Z,90.40
2019-03-01T19:25:51.745Z,90.40
2019-03-01T19:28:23.635Z,90.60
2019-03-01T19:30:53.497Z,90.40
2019-03-01T19:33:23.111Z,90.60
2019-03-01T19:35:52.796Z,90.70
2019-03-01T19:38:25.117Z,90.90
2019-03-01T19:40:54.057Z,90.90
2019-03-01T19:43:24.197Z,91.00
2019-03-01T19:45:54.246Z,91.20
2019-03-01T19:48:23.890Z,91.20
2019-03-01T19:50:53.962Z,91.10
2019-03-01T19:53:25.450Z,91.50
2019-03-01T19:55:55.536Z,91.20
2019-03-01T19:58:25.390Z,91.20
2019-03-01T20:00:55.344Z,91.20
2019-03-01T20:03:25.015Z,91.60
2019-03-01T20:05:54.656Z,91.20
2019-03-01T20:08:26.495Z,91.20
2019-03-01T20:10:55.943Z,91.20
2019-03-01T20:13:25.680Z,91.30
2019-03-01T20:15:55.348Z,91.30
2019-03-01T20:18:25.016Z,91.30
2019-03-01T20:20:54.683Z,91.30
2019-03-01T20:23:26.524Z,91.30
2019-03-01T20:25:55.923Z,91.20
2019-03-01T20:28:25.609Z,91.30
2019-03-01T20:30:55.274Z,91.30
2019-03-01T20:33:27.135Z,91.40
2019-03-01T20:35:57.115Z,91.40
2019-03-01T20:38:26.814Z,91.30
2019-03-01T20:40:59.854Z,91.40
2019-03-01T20:43:28.163Z,91.30
2019-03-01T20:45:57.845Z,91.40
2019-03-01T20:48:28.933Z,91.50
2019-03-01T20:50:58.928Z,91.40
2019-03-01T20:53:28.574Z,91.30
2019-03-01T20:55:58.206Z,91.40
2019-03-01T20:58:27.861Z,91.40
2019-03-01T21:00:58.855Z,91.30
2019-03-01T21:03:29.922Z,91.50
2019-03-01T21:06:01.701Z,91.60
2019-03-01T21:08:31.861Z,91.60
2019-03-01T21:11:01.459Z,91.50
2019-03-01T21:13:31.127Z,91.50
2019-03-01T21:16:01.295Z,91.50
2019-03-01T21:18:34.189Z,91.60
2019-03-01T21:21:02.400Z,91.60
2019-03-01T21:23:32.011Z,91.80
2019-03-01T21:26:01.650Z,91.90
2019-03-01T21:28:33.722Z,91.80
2019-03-01T21:31:02.659Z,91.90
2019-03-01T21:33:32.740Z,91.90
2019-03-01T21:36:02.419Z,92.40
2019-03-01T21:38:32.569Z,92.10
2019-03-01T21:41:02.296Z,92.30
2019-03-01T21:43:33.601Z,92.40
2019-03-01T21:46:03.770Z,92.40
2019-03-01T21:48:33.422Z,92.30
2019-03-01T21:51:03.089Z,92.30
2019-03-01T21:53:32.752Z,92.70
2019-03-01T21:56:04.569Z,92.80
2019-03-01T21:58:34.069Z,92.80
2019-03-01T22:01:05.820Z,92.90
2019-03-01T22:03:35.280Z,92.80
2019-03-01T22:06:05.165Z,92.90
2019-03-01T22:08:34.825Z,92.90
2019-03-01T22:11:04.508Z,93.00
2019-03-01T22:13:35.822Z,93.00
2019-03-01T22:16:05.433Z,93.10
2019-03-01T22:18:36.349Z,93.40
2019-03-01T22:21:06.366Z,93.40
2019-03-01T22:23:36.010Z,93.70
2019-03-01T22:26:09.595Z,93.80
2019-03-01T22:28:38.375Z,93.90
2019-03-01T22:31:08.016Z,94.50
2019-03-01T22:33:37.651Z,94.10
2019-03-01T22:36:07.306Z,94.30
2019-03-01T22:38:37.752Z,94.50
2019-03-01T22:41:08.997Z,94.60
2019-03-01T22:43:40.274Z,94.70
2019-03-01T22:46:10.000Z,94.80
2019-03-01T22:48:46.731Z,94.70
2019-03-01T22:51:14.514Z,94.90
2019-03-01T22:53:44.200Z,95.00
2019-03-01T22:56:14.284Z,95.20
2019-03-01T22:58:44.298Z,95.30
2019-03-01T23:01:18.115Z,95.40
2019-03-01T23:04:07.280Z,95.40
2019-03-01T23:06:36.988Z,95.40
2019-03-01T23:09:11.584Z,95.50
2019-03-01T23:11:41.290Z,95.70
2019-03-01T23:14:10.976Z,95.80
2019-03-01T23:16:41.059Z,95.80
2019-03-01T23:19:12.641Z,95.90
2019-03-01T23:21:42.253Z,96.00
2019-03-01T23:24:12.427Z,96.10
2019-03-01T23:26:42.075Z,96.00
2019-03-01T23:29:11.858Z,96.10
2019-03-01T23:31:41.875Z,96.20
2019-03-01T23:34:16.490Z,96.30
2019-03-01T23:36:46.269Z,96.40
2019-03-01T23:39:16.039Z,96.30
2019-03-01T23:41:46.409Z,96.30
2019-03-01T23:44:16.205Z,96.30
2019-03-01T23:46:46.163Z,96.40
2019-03-01T23:49:15.990Z,96.70
2019-03-01T23:51:46.272Z,96.70
2019-03-01T23:54:15.951Z,96.90
2019-03-01T23:56:45.940Z,97.00
2019-03-01T23:59:15.620Z,97.00
